sensor_id;sensor_type;location;lat;lon;timestamp;P1;durP1;ratioP1;P2;durP2;ratioP2
59788;SDS011;47353;51.614;5.530;2024-03-08T00:00:13;34.17;;;18.75;;
59788;SDS011;47353;51.614;5.530;2024-03-08T00:02:40;35.35;;;19.35;;
59788;SDS011;47353;51.614;5.530;2024-03-08T00:05:07;31.50;;;18.60;;
59788;SDS011;47353;51.614;5.530;2024-03-08T00:07:37;31.80;;;18.60;;
59788;SDS011;47353;51.614;5.530;2024-03-08T00:10:07;36.10;;;20.13;;
59788;SDS011;47353;51.614;5.530;2024-03-08T00:12:43;35.58;;;20.15;;
59788;SDS011;47353;51.614;5.530;2024-03-08T00:15:10;32.08;;;18.23;;
59788;SDS011;47353;51.614;5.530;2024-03-08T00:17:36;31.92;;;17.98;;
59788;SDS011;47353;51.614;5.530;2024-03-08T00:20:02;35.47;;;18.50;;
59788;SDS011;47353;51.614;5.530;2024-03-08T00:22:33;34.33;;;19.40;;
59788;SDS011;47353;51.614;5.530;2024-03-08T00:25:03;29.75;;;17.65;;
59788;SDS011;47353;51.614;5.530;2024-03-08T00:27:29;33.80;;;18.42;;
59788;SDS011;47353;51.614;5.530;2024-03-08T00:29:57;35.15;;;20.00;;
59788;SDS011;47353;51.614;5.530;2024-03-08T00:32:23;31.90;;;19.38;;
59788;SDS011;47353;51.614;5.530;2024-03-08T00:34:50;30.48;;;18.38;;
59788;SDS011;47353;51.614;5.530;2024-03-08T00:37:19;30.85;;;19.35;;
59788;SDS011;47353;51.614;5.530;2024-03-08T00:39:47;31.95;;;17.63;;
59788;SDS011;47353;51.614;5.530;2024-03-08T00:42:15;31.70;;;18.55;;
59788;SDS011;47353;51.614;5.530;2024-03-08T00:44:42;31.52;;;18.48;;
59788;SDS011;47353;51.614;5.530;2024-03-08T00:47:07;31.10;;;18.65;;
59788;SDS011;47353;51.614;5.530;2024-03-08T00:49:33;34.92;;;20.27;;
59788;SDS011;47353;51.614;5.530;2024-03-08T00:51:58;32.60;;;19.00;;
59788;SDS011;47353;51.614;5.530;2024-03-08T00:54:24;31.48;;;17.70;;
59788;SDS011;47353;51.614;5.530;2024-03-08T00:56:49;32.78;;;19.58;;
59788;SDS011;47353;51.614;5.530;2024-03-08T00:59:15;29.63;;;18.42;;
59788;SDS011;47353;51.614;5.530;2024-03-08T01:01:41;32.15;;;18.67;;
59788;SDS011;47353;51.614;5.530;2024-03-08T01:04:06;31.08;;;18.52;;
59788;SDS011;47353;51.614;5.530;2024-03-08T01:06:33;32.60;;;18.85;;
59788;SDS011;47353;51.614;5.530;2024-03-08T01:08:59;28.63;;;18.10;;
59788;SDS011;47353;51.614;5.530;2024-03-08T01:11:24;30.27;;;19.13;;
59788;SDS011;47353;51.614;5.530;2024-03-08T01:13:50;30.60;;;18.73;;
59788;SDS011;47353;51.614;5.530;2024-03-08T01:16:15;29.85;;;18.10;;
59788;SDS011;47353;51.614;5.530;2024-03-08T01:18:42;32.60;;;18.65;;
59788;SDS011;47353;51.614;5.530;2024-03-08T01:21:08;29.27;;;17.83;;
59788;SDS011;47353;51.614;5.530;2024-03-08T01:23:33;32.97;;;20.02;;
59788;SDS011;47353;51.614;5.530;2024-03-08T01:26:00;34.95;;;19.77;;
59788;SDS011;47353;51.614;5.530;2024-03-08T01:28:27;29.45;;;18.00;;
59788;SDS011;47353;51.614;5.530;2024-03-08T01:30:53;32.30;;;19.50;;
59788;SDS011;47353;51.614;5.530;2024-03-08T01:33:24;28.83;;;17.60;;
59788;SDS011;47353;51.614;5.530;2024-03-08T01:35:53;30.27;;;17.95;;
59788;SDS011;47353;51.614;5.530;2024-03-08T01:38:19;30.05;;;18.90;;
59788;SDS011;47353;51.614;5.530;2024-03-08T01:40:48;30.88;;;18.17;;
59788;SDS011;47353;51.614;5.530;2024-03-08T01:43:35;30.08;;;18.50;;
59788;SDS011;47353;51.614;5.530;2024-03-08T01:46:00;30.30;;;19.17;;
59788;SDS011;47353;51.614;5.530;2024-03-08T01:48:29;34.38;;;20.42;;
59788;SDS011;47353;51.614;5.530;2024-03-08T01:50:56;34.33;;;20.48;;
59788;SDS011;47353;51.614;5.530;2024-03-08T01:53:23;35.97;;;20.95;;
59788;SDS011;47353;51.614;5.530;2024-03-08T01:55:50;31.10;;;19.50;;
59788;SDS011;47353;51.614;5.530;2024-03-08T01:58:19;28.58;;;18.48;;
59788;SDS011;47353;51.614;5.530;2024-03-08T02:00:47;30.75;;;19.15;;
59788;SDS011;47353;51.614;5.530;2024-03-08T02:03:16;34.15;;;20.23;;
59788;SDS011;47353;51.614;5.530;2024-03-08T02:05:42;34.70;;;20.40;;
59788;SDS011;47353;51.614;5.530;2024-03-08T02:08:08;32.85;;;19.45;;
59788;SDS011;47353;51.614;5.530;2024-03-08T02:10:40;33.60;;;20.83;;
59788;SDS011;47353;51.614;5.530;2024-03-08T02:13:07;34.55;;;19.88;;
59788;SDS011;47353;51.614;5.530;2024-03-08T02:18:21;34.28;;;20.40;;
59788;SDS011;47353;51.614;5.530;2024-03-08T02:20:57;31.77;;;18.80;;
59788;SDS011;47353;51.614;5.530;2024-03-08T02:23:24;29.33;;;17.65;;
59788;SDS011;47353;51.614;5.530;2024-03-08T02:25:50;34.17;;;21.10;;
59788;SDS011;47353;51.614;5.530;2024-03-08T02:28:16;35.05;;;21.40;;
59788;SDS011;47353;51.614;5.530;2024-03-08T02:30:45;39.20;;;22.58;;
59788;SDS011;47353;51.614;5.530;2024-03-08T02:33:13;35.83;;;21.88;;
59788;SDS011;47353;51.614;5.530;2024-03-08T02:35:42;36.90;;;22.20;;
59788;SDS011;47353;51.614;5.530;2024-03-08T02:38:10;31.92;;;19.98;;
59788;SDS011;47353;51.614;5.530;2024-03-08T02:40:36;33.00;;;20.75;;
59788;SDS011;47353;51.614;5.530;2024-03-08T02:43:02;33.40;;;20.38;;
59788;SDS011;47353;51.614;5.530;2024-03-08T02:45:30;33.13;;;21.00;;
59788;SDS011;47353;51.614;5.530;2024-03-08T02:47:55;32.67;;;20.10;;
59788;SDS011;47353;51.614;5.530;2024-03-08T02:50:21;34.80;;;20.38;;
59788;SDS011;47353;51.614;5.530;2024-03-08T02:52:47;32.47;;;20.55;;
59788;SDS011;47353;51.614;5.530;2024-03-08T02:55:13;31.20;;;18.73;;
59788;SDS011;47353;51.614;5.530;2024-03-08T02:57:41;33.35;;;20.40;;
59788;SDS011;47353;51.614;5.530;2024-03-08T03:00:08;36.00;;;22.58;;
59788;SDS011;47353;51.614;5.530;2024-03-08T03:02:34;36.22;;;22.92;;
59788;SDS011;47353;51.614;5.530;2024-03-08T03:05:01;33.75;;;20.92;;
59788;SDS011;47353;51.614;5.530;2024-03-08T03:07:34;40.88;;;23.25;;
59788;SDS011;47353;51.614;5.530;2024-03-08T03:10:00;35.97;;;21.85;;
59788;SDS011;47353;51.614;5.530;2024-03-08T03:12:29;38.30;;;22.42;;
59788;SDS011;47353;51.614;5.530;2024-03-08T03:14:56;35.78;;;21.58;;
59788;SDS011;47353;51.614;5.530;2024-03-08T03:17:22;34.45;;;21.52;;
59788;SDS011;47353;51.614;5.530;2024-03-08T03:19:51;38.15;;;22.58;;
59788;SDS011;47353;51.614;5.530;2024-03-08T03:22:18;36.72;;;22.45;;
59788;SDS011;47353;51.614;5.530;2024-03-08T03:24:46;35.40;;;21.98;;
59788;SDS011;47353;51.614;5.530;2024-03-08T03:27:15;36.00;;;21.90;;
59788;SDS011;47353;51.614;5.530;2024-03-08T03:29:41;42.17;;;24.35;;
59788;SDS011;47353;51.614;5.530;2024-03-08T03:32:11;37.20;;;23.38;;
59788;SDS011;47353;51.614;5.530;2024-03-08T03:34:37;37.78;;;22.45;;
59788;SDS011;47353;51.614;5.530;2024-03-08T03:37:03;40.22;;;23.77;;
59788;SDS011;47353;51.614;5.530;2024-03-08T03:39:29;36.90;;;23.10;;
59788;SDS011;47353;51.614;5.530;2024-03-08T03:41:59;37.28;;;22.55;;
59788;SDS011;47353;51.614;5.530;2024-03-08T03:44:31;39.72;;;23.55;;
59788;SDS011;47353;51.614;5.530;2024-03-08T03:46:57;37.33;;;22.73;;
59788;SDS011;47353;51.614;5.530;2024-03-08T03:49:22;41.63;;;24.30;;
59788;SDS011;47353;51.614;5.530;2024-03-08T03:51:48;47.95;;;25.10;;
59788;SDS011;47353;51.614;5.530;2024-03-08T03:54:14;40.67;;;23.98;;
59788;SDS011;47353;51.614;5.530;2024-03-08T03:56:39;37.28;;;22.95;;
59788;SDS011;47353;51.614;5.530;2024-03-08T03:59:05;39.63;;;23.83;;
59788;SDS011;47353;51.614;5.530;2024-03-08T04:01:32;42.10;;;24.30;;
59788;SDS011;47353;51.614;5.530;2024-03-08T04:03:58;41.20;;;24.25;;
59788;SDS011;47353;51.614;5.530;2024-03-08T04:06:23;39.33;;;23.75;;
59788;SDS011;47353;51.614;5.530;2024-03-08T04:08:49;39.22;;;24.30;;
59788;SDS011;47353;51.614;5.530;2024-03-08T04:11:14;42.20;;;24.58;;
59788;SDS011;47353;51.614;5.530;2024-03-08T04:13:42;38.53;;;23.30;;
59788;SDS011;47353;51.614;5.530;2024-03-08T04:16:08;43.58;;;24.17;;
59788;SDS011;47353;51.614;5.530;2024-03-08T04:18:34;39.05;;;23.00;;
59788;SDS011;47353;51.614;5.530;2024-03-08T04:21:01;43.65;;;24.83;;
59788;SDS011;47353;51.614;5.530;2024-03-08T04:23:27;43.88;;;25.17;;
59788;SDS011;47353;51.614;5.530;2024-03-08T04:25:53;45.08;;;26.05;;
59788;SDS011;47353;51.614;5.530;2024-03-08T04:28:19;44.97;;;25.65;;
59788;SDS011;47353;51.614;5.530;2024-03-08T04:30:45;45.95;;;25.85;;
59788;SDS011;47353;51.614;5.530;2024-03-08T04:33:11;41.08;;;25.05;;
59788;SDS011;47353;51.614;5.530;2024-03-08T04:35:36;44.83;;;25.42;;
59788;SDS011;47353;51.614;5.530;2024-03-08T04:38:02;39.45;;;23.27;;
59788;SDS011;47353;51.614;5.530;2024-03-08T04:40:30;38.72;;;22.95;;
59788;SDS011;47353;51.614;5.530;2024-03-08T04:42:56;41.80;;;23.52;;
59788;SDS011;47353;51.614;5.530;2024-03-08T04:45:23;42.97;;;25.73;;
59788;SDS011;47353;51.614;5.530;2024-03-08T04:47:51;43.45;;;25.38;;
59788;SDS011;47353;51.614;5.530;2024-03-08T04:50:17;40.30;;;24.65;;
59788;SDS011;47353;51.614;5.530;2024-03-08T04:52:43;42.17;;;24.33;;
59788;SDS011;47353;51.614;5.530;2024-03-08T04:55:09;44.83;;;26.45;;
59788;SDS011;47353;51.614;5.530;2024-03-08T04:57:34;43.15;;;24.58;;
59788;SDS011;47353;51.614;5.530;2024-03-08T05:00:01;42.42;;;24.85;;
59788;SDS011;47353;51.614;5.530;2024-03-08T05:02:29;41.70;;;24.63;;
59788;SDS011;47353;51.614;5.530;2024-03-08T05:04:54;45.60;;;24.98;;
59788;SDS011;47353;51.614;5.530;2024-03-08T05:07:20;42.38;;;23.40;;
59788;SDS011;47353;51.614;5.530;2024-03-08T05:09:45;42.78;;;24.70;;
59788;SDS011;47353;51.614;5.530;2024-03-08T05:12:16;48.53;;;26.00;;
59788;SDS011;47353;51.614;5.530;2024-03-08T05:14:43;44.38;;;25.92;;
59788;SDS011;47353;51.614;5.530;2024-03-08T05:17:10;42.53;;;25.48;;
59788;SDS011;47353;51.614;5.530;2024-03-08T05:19:36;46.95;;;26.27;;
59788;SDS011;47353;51.614;5.530;2024-03-08T05:22:01;44.13;;;24.73;;
59788;SDS011;47353;51.614;5.530;2024-03-08T05:24:28;45.38;;;25.13;;
59788;SDS011;47353;51.614;5.530;2024-03-08T05:26:55;46.70;;;25.58;;
59788;SDS011;47353;51.614;5.530;2024-03-08T05:29:20;41.90;;;23.73;;
59788;SDS011;47353;51.614;5.530;2024-03-08T05:31:47;48.15;;;26.08;;
59788;SDS011;47353;51.614;5.530;2024-03-08T05:34:14;44.42;;;25.27;;
59788;SDS011;47353;51.614;5.530;2024-03-08T05:36:41;42.80;;;23.67;;
59788;SDS011;47353;51.614;5.530;2024-03-08T05:39:09;40.67;;;23.70;;
59788;SDS011;47353;51.614;5.530;2024-03-08T05:41:37;46.05;;;25.33;;
59788;SDS011;47353;51.614;5.530;2024-03-08T05:44:04;43.55;;;25.67;;
59788;SDS011;47353;51.614;5.530;2024-03-08T05:46:29;41.95;;;24.10;;
59788;SDS011;47353;51.614;5.530;2024-03-08T05:48:55;42.55;;;24.30;;
59788;SDS011;47353;51.614;5.530;2024-03-08T05:51:20;46.22;;;25.48;;
59788;SDS011;47353;51.614;5.530;2024-03-08T05:53:50;42.37;;;23.97;;
59788;SDS011;47353;51.614;5.530;2024-03-08T05:56:17;44.88;;;25.92;;
59788;SDS011;47353;51.614;5.530;2024-03-08T05:58:43;45.53;;;26.10;;
59788;SDS011;47353;51.614;5.530;2024-03-08T06:01:09;41.65;;;23.65;;
59788;SDS011;47353;51.614;5.530;2024-03-08T06:03:37;46.38;;;25.92;;
59788;SDS011;47353;51.614;5.530;2024-03-08T06:06:11;46.75;;;26.02;;
59788;SDS011;47353;51.614;5.530;2024-03-08T06:08:37;44.50;;;25.10;;
59788;SDS011;47353;51.614;5.530;2024-03-08T06:11:03;44.93;;;25.13;;
59788;SDS011;47353;51.614;5.530;2024-03-08T06:13:31;44.25;;;24.80;;
59788;SDS011;47353;51.614;5.530;2024-03-08T06:15:57;41.65;;;24.30;;
59788;SDS011;47353;51.614;5.530;2024-03-08T06:18:22;48.15;;;27.23;;
59788;SDS011;47353;51.614;5.530;2024-03-08T06:20:48;46.38;;;25.80;;
59788;SDS011;47353;51.614;5.530;2024-03-08T06:23:13;49.97;;;26.67;;
59788;SDS011;47353;51.614;5.530;2024-03-08T06:25:45;45.20;;;25.33;;
59788;SDS011;47353;51.614;5.530;2024-03-08T06:28:11;47.63;;;25.67;;
59788;SDS011;47353;51.614;5.530;2024-03-08T06:30:36;43.45;;;24.30;;
59788;SDS011;47353;51.614;5.530;2024-03-08T06:33:02;41.35;;;24.45;;
59788;SDS011;47353;51.614;5.530;2024-03-08T06:35:28;40.47;;;23.63;;
59788;SDS011;47353;51.614;5.530;2024-03-08T06:37:53;45.53;;;24.98;;
59788;SDS011;47353;51.614;5.530;2024-03-08T06:40:19;45.22;;;25.00;;
59788;SDS011;47353;51.614;5.530;2024-03-08T06:42:44;49.08;;;26.08;;
59788;SDS011;47353;51.614;5.530;2024-03-08T06:45:10;45.38;;;25.98;;
59788;SDS011;47353;51.614;5.530;2024-03-08T06:47:37;43.47;;;24.83;;
59788;SDS011;47353;51.614;5.530;2024-03-08T06:50:03;49.65;;;26.45;;
59788;SDS011;47353;51.614;5.530;2024-03-08T06:52:29;48.90;;;26.17;;
59788;SDS011;47353;51.614;5.530;2024-03-08T06:54:54;46.35;;;25.45;;
59788;SDS011;47353;51.614;5.530;2024-03-08T06:57:22;49.35;;;26.55;;
59788;SDS011;47353;51.614;5.530;2024-03-08T06:59:48;46.85;;;26.48;;
59788;SDS011;47353;51.614;5.530;2024-03-08T07:02:14;48.15;;;27.02;;
59788;SDS011;47353;51.614;5.530;2024-03-08T07:04:39;46.75;;;26.65;;
59788;SDS011;47353;51.614;5.530;2024-03-08T07:07:05;44.60;;;25.38;;
59788;SDS011;47353;51.614;5.530;2024-03-08T07:09:33;48.00;;;27.45;;
59788;SDS011;47353;51.614;5.530;2024-03-08T07:11:58;43.60;;;25.33;;
59788;SDS011;47353;51.614;5.530;2024-03-08T07:14:24;43.72;;;24.75;;
59788;SDS011;47353;51.614;5.530;2024-03-08T07:16:50;44.45;;;26.10;;
59788;SDS011;47353;51.614;5.530;2024-03-08T07:19:16;48.95;;;26.70;;
59788;SDS011;47353;51.614;5.530;2024-03-08T07:21:42;44.83;;;26.15;;
59788;SDS011;47353;51.614;5.530;2024-03-08T07:24:09;45.22;;;26.17;;
59788;SDS011;47353;51.614;5.530;2024-03-08T07:26:53;43.13;;;24.73;;
59788;SDS011;47353;51.614;5.530;2024-03-08T07:29:20;43.75;;;26.60;;
59788;SDS011;47353;51.614;5.530;2024-03-08T07:31:46;42.95;;;24.90;;
59788;SDS011;47353;51.614;5.530;2024-03-08T07:34:35;39.65;;;24.00;;
59788;SDS011;47353;51.614;5.530;2024-03-08T07:37:00;41.92;;;25.10;;
59788;SDS011;47353;51.614;5.530;2024-03-08T07:39:26;40.72;;;24.83;;
59788;SDS011;47353;51.614;5.530;2024-03-08T07:41:51;41.22;;;24.90;;
59788;SDS011;47353;51.614;5.530;2024-03-08T07:44:20;41.20;;;25.20;;
59788;SDS011;47353;51.614;5.530;2024-03-08T07:46:45;43.35;;;26.00;;
59788;SDS011;47353;51.614;5.530;2024-03-08T07:49:11;41.33;;;25.83;;
59788;SDS011;47353;51.614;5.530;2024-03-08T07:51:37;38.75;;;24.77;;
59788;SDS011;47353;51.614;5.530;2024-03-08T07:54:03;36.95;;;23.75;;
59788;SDS011;47353;51.614;5.530;2024-03-08T07:56:29;37.58;;;24.42;;
59788;SDS011;47353;51.614;5.530;2024-03-08T07:58:55;38.03;;;24.73;;
59788;SDS011;47353;51.614;5.530;2024-03-08T08:01:21;40.80;;;25.80;;
59788;SDS011;47353;51.614;5.530;2024-03-08T08:03:47;39.15;;;24.42;;
59788;SDS011;47353;51.614;5.530;2024-03-08T08:06:14;36.78;;;23.77;;
59788;SDS011;47353;51.614;5.530;2024-03-08T08:08:44;36.25;;;23.55;;
59788;SDS011;47353;51.614;5.530;2024-03-08T08:11:10;38.42;;;24.30;;
59788;SDS011;47353;51.614;5.530;2024-03-08T08:13:40;36.28;;;23.35;;
59788;SDS011;47353;51.614;5.530;2024-03-08T08:16:07;39.95;;;24.42;;
59788;SDS011;47353;51.614;5.530;2024-03-08T08:18:32;35.75;;;23.23;;
59788;SDS011;47353;51.614;5.530;2024-03-08T08:20:58;35.75;;;23.60;;
59788;SDS011;47353;51.614;5.530;2024-03-08T08:23:25;34.85;;;22.73;;
59788;SDS011;47353;51.614;5.530;2024-03-08T08:25:51;33.67;;;22.90;;
59788;SDS011;47353;51.614;5.530;2024-03-08T08:28:17;32.90;;;22.67;;
59788;SDS011;47353;51.614;5.530;2024-03-08T08:30:46;31.58;;;21.85;;
59788;SDS011;47353;51.614;5.530;2024-03-08T08:33:14;30.73;;;22.13;;
59788;SDS011;47353;51.614;5.530;2024-03-08T08:35:40;29.90;;;21.38;;
59788;SDS011;47353;51.614;5.530;2024-03-08T08:38:05;30.02;;;21.88;;
59788;SDS011;47353;51.614;5.530;2024-03-08T08:40:32;34.70;;;23.42;;
59788;SDS011;47353;51.614;5.530;2024-03-08T08:42:59;31.58;;;20.42;;
59788;SDS011;47353;51.614;5.530;2024-03-08T08:45:24;29.20;;;21.02;;
59788;SDS011;47353;51.614;5.530;2024-03-08T08:47:50;30.92;;;21.17;;
59788;SDS011;47353;51.614;5.530;2024-03-08T08:50:16;30.30;;;21.42;;
59788;SDS011;47353;51.614;5.530;2024-03-08T08:52:48;29.58;;;20.98;;
59788;SDS011;47353;51.614;5.530;2024-03-08T08:55:13;29.23;;;21.45;;
59788;SDS011;47353;51.614;5.530;2024-03-08T08:57:40;28.10;;;20.25;;
59788;SDS011;47353;51.614;5.530;2024-03-08T09:00:06;30.67;;;21.27;;
59788;SDS011;47353;51.614;5.530;2024-03-08T09:02:32;30.52;;;21.88;;
59788;SDS011;47353;51.614;5.530;2024-03-08T09:05:02;29.70;;;20.38;;
59788;SDS011;47353;51.614;5.530;2024-03-08T09:07:28;29.15;;;21.20;;
59788;SDS011;47353;51.614;5.530;2024-03-08T09:09:54;26.25;;;19.95;;
59788;SDS011;47353;51.614;5.530;2024-03-08T09:12:23;27.27;;;20.00;;
59788;SDS011;47353;51.614;5.530;2024-03-08T09:14:49;28.52;;;20.17;;
59788;SDS011;47353;51.614;5.530;2024-03-08T09:17:15;25.15;;;18.80;;
59788;SDS011;47353;51.614;5.530;2024-03-08T09:19:45;25.83;;;19.85;;
59788;SDS011;47353;51.614;5.530;2024-03-08T09:22:12;27.20;;;19.70;;
59788;SDS011;47353;51.614;5.530;2024-03-08T09:24:38;25.13;;;19.33;;
59788;SDS011;47353;51.614;5.530;2024-03-08T09:27:05;24.42;;;19.13;;
59788;SDS011;47353;51.614;5.530;2024-03-08T09:29:30;25.52;;;19.02;;
59788;SDS011;47353;51.614;5.530;2024-03-08T09:31:56;24.60;;;18.65;;
59788;SDS011;47353;51.614;5.530;2024-03-08T09:34:21;26.52;;;19.27;;
59788;SDS011;47353;51.614;5.530;2024-03-08T09:36:47;25.80;;;18.33;;
59788;SDS011;47353;51.614;5.530;2024-03-08T09:39:12;24.92;;;18.67;;
59788;SDS011;47353;51.614;5.530;2024-03-08T09:41:42;24.08;;;18.35;;
59788;SDS011;47353;51.614;5.530;2024-03-08T09:44:08;26.25;;;19.63;;
59788;SDS011;47353;51.614;5.530;2024-03-08T09:46:34;24.63;;;18.63;;
59788;SDS011;47353;51.614;5.530;2024-03-08T09:49:00;27.15;;;19.02;;
59788;SDS011;47353;51.614;5.530;2024-03-08T09:51:30;23.23;;;18.42;;
59788;SDS011;47353;51.614;5.530;2024-03-08T09:54:00;22.58;;;17.50;;
59788;SDS011;47353;51.614;5.530;2024-03-08T09:56:25;23.50;;;18.00;;
59788;SDS011;47353;51.614;5.530;2024-03-08T09:58:52;25.65;;;17.85;;
59788;SDS011;47353;51.614;5.530;2024-03-08T10:01:36;22.45;;;17.60;;
59788;SDS011;47353;51.614;5.530;2024-03-08T10:04:04;23.90;;;18.13;;
59788;SDS011;47353;51.614;5.530;2024-03-08T10:06:30;24.42;;;17.90;;
59788;SDS011;47353;51.614;5.530;2024-03-08T10:08:56;23.40;;;17.85;;
59788;SDS011;47353;51.614;5.530;2024-03-08T10:11:22;26.20;;;18.10;;
59788;SDS011;47353;51.614;5.530;2024-03-08T10:13:49;23.05;;;17.02;;
59788;SDS011;47353;51.614;5.530;2024-03-08T10:16:15;22.25;;;17.48;;
59788;SDS011;47353;51.614;5.530;2024-03-08T10:18:42;22.02;;;17.95;;
59788;SDS011;47353;51.614;5.530;2024-03-08T10:21:08;22.92;;;16.95;;
59788;SDS011;47353;51.614;5.530;2024-03-08T10:23:37;24.38;;;17.98;;
59788;SDS011;47353;51.614;5.530;2024-03-08T10:26:12;23.35;;;17.45;;
59788;SDS011;47353;51.614;5.530;2024-03-08T10:28:42;21.00;;;17.42;;
59788;SDS011;47353;51.614;5.530;2024-03-08T10:31:09;21.90;;;17.10;;
59788;SDS011;47353;51.614;5.530;2024-03-08T10:33:35;22.88;;;17.75;;
59788;SDS011;47353;51.614;5.530;2024-03-08T10:36:00;22.90;;;17.63;;
59788;SDS011;47353;51.614;5.530;2024-03-08T10:38:26;22.95;;;18.40;;
59788;SDS011;47353;51.614;5.530;2024-03-08T10:40:56;20.45;;;17.08;;
59788;SDS011;47353;51.614;5.530;2024-03-08T10:43:25;23.55;;;17.95;;
59788;SDS011;47353;51.614;5.530;2024-03-08T10:46:03;20.67;;;16.45;;
59788;SDS011;47353;51.614;5.530;2024-03-08T10:48:49;24.58;;;18.02;;
59788;SDS011;47353;51.614;5.530;2024-03-08T10:51:17;21.00;;;16.55;;
59788;SDS011;47353;51.614;5.530;2024-03-08T10:53:44;19.67;;;16.02;;
59788;SDS011;47353;51.614;5.530;2024-03-08T10:56:11;20.77;;;16.70;;
59788;SDS011;47353;51.614;5.530;2024-03-08T10:58:39;20.75;;;15.82;;
59788;SDS011;47353;51.614;5.530;2024-03-08T11:01:05;18.50;;;15.02;;
59788;SDS011;47353;51.614;5.530;2024-03-08T11:06:50;20.77;;;15.85;;
59788;SDS011;47353;51.614;5.530;2024-03-08T11:14:45;19.00;;;15.48;;
59788;SDS011;47353;51.614;5.530;2024-03-08T11:18:01;19.38;;;16.02;;
59788;SDS011;47353;51.614;5.530;2024-03-08T11:20:13;20.48;;;15.98;;
59788;SDS011;47353;51.614;5.530;2024-03-08T11:22:49;21.45;;;15.73;;
59788;SDS011;47353;51.614;5.530;2024-03-08T11:25:35;20.35;;;15.38;;
59788;SDS011;47353;51.614;5.530;2024-03-08T11:28:22;20.38;;;16.00;;
59788;SDS011;47353;51.614;5.530;2024-03-08T11:33:27;17.83;;;14.32;;
59788;SDS011;47353;51.614;5.530;2024-03-08T11:36:05;19.67;;;15.95;;
59788;SDS011;47353;51.614;5.530;2024-03-08T11:38:42;20.08;;;15.27;;
59788;SDS011;47353;51.614;5.530;2024-03-08T11:41:09;16.80;;;13.90;;
59788;SDS011;47353;51.614;5.530;2024-03-08T11:43:39;20.15;;;16.30;;
59788;SDS011;47353;51.614;5.530;2024-03-08T11:46:08;19.30;;;15.13;;
59788;SDS011;47353;51.614;5.530;2024-03-08T11:48:34;20.00;;;15.70;;
59788;SDS011;47353;51.614;5.530;2024-03-08T11:51:01;20.55;;;15.05;;
59788;SDS011;47353;51.614;5.530;2024-03-08T11:53:28;19.65;;;16.10;;
59788;SDS011;47353;51.614;5.530;2024-03-08T11:55:53;19.75;;;16.23;;
59788;SDS011;47353;51.614;5.530;2024-03-08T11:58:19;18.60;;;15.93;;
59788;SDS011;47353;51.614;5.530;2024-03-08T12:00:44;20.17;;;15.82;;
59788;SDS011;47353;51.614;5.530;2024-03-08T12:03:11;20.83;;;16.48;;
59788;SDS011;47353;51.614;5.530;2024-03-08T12:05:37;19.00;;;15.50;;
59788;SDS011;47353;51.614;5.530;2024-03-08T12:08:03;21.00;;;16.40;;
59788;SDS011;47353;51.614;5.530;2024-03-08T12:10:31;18.98;;;14.98;;
59788;SDS011;47353;51.614;5.530;2024-03-08T12:12:58;18.83;;;15.57;;
59788;SDS011;47353;51.614;5.530;2024-03-08T12:15:24;18.73;;;15.20;;
59788;SDS011;47353;51.614;5.530;2024-03-08T12:17:51;21.48;;;16.52;;
59788;SDS011;47353;51.614;5.530;2024-03-08T12:20:23;18.13;;;15.63;;
59788;SDS011;47353;51.614;5.530;2024-03-08T12:22:59;17.63;;;14.85;;
59788;SDS011;47353;51.614;5.530;2024-03-08T12:25:31;16.80;;;14.07;;
59788;SDS011;47353;51.614;5.530;2024-03-08T12:28:09;18.17;;;13.75;;
59788;SDS011;47353;51.614;5.530;2024-03-08T12:30:43;18.98;;;14.85;;
59788;SDS011;47353;51.614;5.530;2024-03-08T12:33:12;18.08;;;13.70;;
59788;SDS011;47353;51.614;5.530;2024-03-08T12:35:37;20.05;;;15.95;;
59788;SDS011;47353;51.614;5.530;2024-03-08T12:38:03;18.48;;;15.57;;
59788;SDS011;47353;51.614;5.530;2024-03-08T12:40:31;15.95;;;13.00;;
59788;SDS011;47353;51.614;5.530;2024-03-08T12:42:59;18.45;;;13.88;;
59788;SDS011;47353;51.614;5.530;2024-03-08T12:45:26;17.75;;;14.00;;
59788;SDS011;47353;51.614;5.530;2024-03-08T12:47:52;19.85;;;14.82;;
59788;SDS011;47353;51.614;5.530;2024-03-08T12:50:19;18.15;;;14.77;;
59788;SDS011;47353;51.614;5.530;2024-03-08T12:52:45;17.70;;;14.50;;
59788;SDS011;47353;51.614;5.530;2024-03-08T12:55:11;18.08;;;15.65;;
59788;SDS011;47353;51.614;5.530;2024-03-08T12:57:37;17.50;;;14.50;;
59788;SDS011;47353;51.614;5.530;2024-03-08T13:00:03;19.63;;;15.88;;
59788;SDS011;47353;51.614;5.530;2024-03-08T13:02:30;17.58;;;14.38;;
59788;SDS011;47353;51.614;5.530;2024-03-08T13:04:58;18.17;;;15.02;;
59788;SDS011;47353;51.614;5.530;2024-03-08T13:07:24;18.00;;;14.13;;
59788;SDS011;47353;51.614;5.530;2024-03-08T13:09:53;19.98;;;15.18;;
59788;SDS011;47353;51.614;5.530;2024-03-08T13:12:24;18.52;;;14.30;;
59788;SDS011;47353;51.614;5.530;2024-03-08T13:14:49;17.77;;;14.77;;
59788;SDS011;47353;51.614;5.530;2024-03-08T13:17:15;16.58;;;13.77;;
59788;SDS011;47353;51.614;5.530;2024-03-08T13:19:41;15.05;;;12.02;;
59788;SDS011;47353;51.614;5.530;2024-03-08T13:22:09;13.00;;;10.50;;
59788;SDS011;47353;51.614;5.530;2024-03-08T13:24:38;11.30;;;9.98;;
59788;SDS011;47353;51.614;5.530;2024-03-08T13:27:06;14.00;;;10.00;;
59788;SDS011;47353;51.614;5.530;2024-03-08T13:29:42;12.65;;;9.73;;
59788;SDS011;47353;51.614;5.530;2024-03-08T13:32:08;16.77;;;12.63;;
59788;SDS011;47353;51.614;5.530;2024-03-08T13:34:37;18.55;;;14.65;;
59788;SDS011;47353;51.614;5.530;2024-03-08T13:37:05;20.95;;;16.73;;
59788;SDS011;47353;51.614;5.530;2024-03-08T13:39:31;18.63;;;15.68;;
59788;SDS011;47353;51.614;5.530;2024-03-08T13:42:06;20.13;;;15.57;;
59788;SDS011;47353;51.614;5.530;2024-03-08T13:44:37;21.33;;;15.47;;
59788;SDS011;47353;51.614;5.530;2024-03-08T13:47:04;18.23;;;14.88;;
59788;SDS011;47353;51.614;5.530;2024-03-08T13:49:30;18.13;;;15.57;;
59788;SDS011;47353;51.614;5.530;2024-03-08T13:51:56;19.25;;;15.10;;
59788;SDS011;47353;51.614;5.530;2024-03-08T13:54:24;17.23;;;14.40;;
59788;SDS011;47353;51.614;5.530;2024-03-08T13:56:49;18.92;;;14.88;;
59788;SDS011;47353;51.614;5.530;2024-03-08T13:59:19;19.90;;;15.40;;
59788;SDS011;47353;51.614;5.530;2024-03-08T14:01:47;17.27;;;14.50;;
59788;SDS011;47353;51.614;5.530;2024-03-08T14:04:14;17.85;;;14.32;;
59788;SDS011;47353;51.614;5.530;2024-03-08T14:06:42;17.88;;;15.00;;
59788;SDS011;47353;51.614;5.530;2024-03-08T14:09:10;20.08;;;16.17;;
59788;SDS011;47353;51.614;5.530;2024-03-08T14:11:42;18.73;;;14.93;;
59788;SDS011;47353;51.614;5.530;2024-03-08T14:14:11;18.13;;;16.10;;
59788;SDS011;47353;51.614;5.530;2024-03-08T14:16:39;18.95;;;15.25;;
59788;SDS011;47353;51.614;5.530;2024-03-08T14:19:05;17.00;;;14.50;;
59788;SDS011;47353;51.614;5.530;2024-03-08T14:21:33;21.58;;;15.80;;
59788;SDS011;47353;51.614;5.530;2024-03-08T14:23:59;20.35;;;16.13;;
59788;SDS011;47353;51.614;5.530;2024-03-08T14:26:24;20.00;;;15.80;;
59788;SDS011;47353;51.614;5.530;2024-03-08T14:28:51;19.80;;;15.18;;
59788;SDS011;47353;51.614;5.530;2024-03-08T14:31:19;19.33;;;16.02;;
59788;SDS011;47353;51.614;5.530;2024-03-08T14:33:45;20.48;;;16.83;;
59788;SDS011;47353;51.614;5.530;2024-03-08T14:36:14;22.40;;;15.88;;